Latest Weather Observations for Leigh Creek

IDS60801

Issued at 2:31 pm CST Saturday 30 April 2016 (issued every 30 minutes, with the page automatically refreshed every 10 minutes)

About weather observations | Map of weather stations | Latest weather observations for SA | Other Formats
Station Details ID: 017110 Name: LEIGH CREEK AIRPORT Lat: -30.60 Lon: 138.42 Height: 258.8 m
Data from the previous 72 hours. | See also: Recent months at Leigh Creek
Date/Time
CST
Temp
°C
App
Temp
°C
Dew
Point
Rel
Hum
%
Delta-T
°C
Wind Press
QNH
hPa
Press
MSL
hPa
Rain
since 9 am
mm
Dir
 
Spd
km/h
Gust
km/h
Spd
kts
Gust
kts
30/02:30pm 26.6 22.9 11.5 39 8.7 N 22 30 12 16 1012.8 1012.0 0.0
30/02:00pm 26.4 21.4 9.7 35 9.3 NNW 26 35 14 19 1012.7 1011.9 0.0
30/01:30pm 27.6 22.4 11.6 37 9.3 N 30 41 16 22 1012.9 1012.1 0.0
30/01:00pm 27.0 21.4 11.5 38 9.0 N 32 43 17 23 1013.6 1012.8 0.0
30/12:30pm 27.1 22.9 11.2 37 9.1 NNW 24 39 13 21 1014.0 1013.2 0.0
30/12:00pm 27.8 23.4 10.5 34 9.9 N 24 30 13 16 1014.2 1013.4 0.0
30/11:30am 27.2 23.2 10.4 35 9.5 N 22 30 12 16 1014.8 1014.0 0.0
30/11:00am 26.3 22.6 10.0 36 9.2 N 20 30 11 16 1015.2 1014.4 0.0
30/10:30am 25.8 22.0 9.2 35 9.2 N 19 26 10 14 1015.5 1014.7 0.0
30/10:00am 25.2 21.3 9.5 37 8.7 N 20 28 11 15 1015.8 1015.1 0.0
30/09:30am 24.0 22.8 11.7 46 7.0 N 9 13 5 7 1015.9 1015.2 0.0
30/09:00am 20.6 21.3 12.1 58 4.8 CALM 0 0 0 0 1016.0 1015.3 0.0
30/08:30am 17.3 17.9 11.8 70 3.0 CALM 0 0 0 0 1016.3 1015.6 0.0
30/08:00am 15.2 14.5 11.4 78 2.1 N 6 7 3 4 1016.3 1015.6 0.0
30/07:30am 13.2 11.7 10.4 83 1.5 N 9 11 5 6 1016.1 1015.4 0.0
30/07:00am 11.9 9.8 9.8 87 1.1 N 11 13 6 7 1016.2 1015.5 0.0
30/06:30am 12.0 10.8 10.4 90 0.8 NNW 7 11 4 6 1016.2 1015.5 0.0
30/06:00am 12.0 11.1 10.7 92 0.7 N 6 9 3 5 1016.0 1015.3 0.0
30/05:30am 12.1 11.3 11.0 93 0.6 N 6 9 3 5 1015.9 1015.2 0.0
30/05:00am 11.9 11.7 10.6 92 0.7 N 2 7 1 4 1015.6 1014.8 0.0
30/04:30am 12.2 11.3 10.8 91 0.7 N 6 9 3 5 1015.3 1014.5 0.0
30/04:00am 11.9 10.7 9.6 86 1.2 N 6 9 3 5 1015.1 1014.3 0.0
30/03:30am 13.4 12.8 12.3 93 0.6 N 7 9 4 5 1015.1 1014.3 0.0
30/03:00am 13.7 12.7 12.4 92 0.7 N 9 11 5 6 1015.1 1014.3 0.0
30/02:30am 13.5 12.4 12.1 91 0.8 N 9 11 5 6 1015.2 1014.4 0.0
30/02:00am 13.5 14.0 11.7 89 1.0 CALM 0 0 0 0 1015.4 1014.6 0.0
30/01:30am 14.3 15.1 12.5 89 1.0 CALM 0 0 0 0 1015.5 1014.7 0.0
30/01:00am 15.1 16.2 13.5 90 0.9 CALM 0 0 0 0 1015.6 1014.8 0.0
30/12:30am 15.1 16.1 13.1 88 1.1 CALM 0 4 0 2 1015.8 1015.1 0.0
30/12:00am 14.6 13.4 11.7 83 1.6 N 9 9 5 5 1016.0 1015.3 0.0
 
Date/Time
CST
Temp
°C
App
Temp
°C
Dew
Point
Rel
Hum
%
Delta-T
°C
Wind Press
QNH
hPa
Press
MSL
hPa
Rain
since 9 am
mm
Dir
 
Spd
km/h
Gust
km/h
Spd
kts
Gust
kts
29/11:30pm 14.9 14.3 11.7 81 1.7 N 6 7 3 4 1016.1 1015.4 0.0
29/11:00pm 15.1 13.8 11.3 78 2.1 N 9 11 5 6 1016.3 1015.6 0.0
29/10:30pm 15.7 14.1 11.7 77 2.2 N 11 11 6 6 1016.3 1015.6 0.0
29/10:00pm 16.3 14.4 11.7 74 2.5 N 13 15 7 8 1016.2 1015.5 0.0
29/09:30pm 16.6 14.6 11.5 72 2.8 N 13 15 7 8 1016.2 1015.5 0.0
29/09:00pm 16.6 14.1 11.1 70 3.0 N 15 17 8 9 1016.1 1015.4 0.0
29/08:30pm 17.5 15.0 11.1 66 3.5 N 15 17 8 9 1015.8 1015.1 0.0
29/08:00pm 18.2 15.6 10.8 62 4.0 NNW 15 17 8 9 1015.5 1014.7 0.0
29/07:30pm 18.0 14.9 8.8 55 4.8 NNW 15 17 8 9 1015.2 1014.4 0.0
29/07:00pm 19.2 17.6 8.8 51 5.5 N 7 9 4 5 1014.8 1014.0 0.0
29/06:30pm 20.1 17.8 9.1 49 5.9 N 11 13 6 7 1014.6 1013.8 0.0
29/06:00pm 21.9 22.0 10.1 47 6.5 CALM 0 0 0 0 1014.5 1013.7 0.0
29/05:30pm 23.5 23.6 10.2 43 7.4 CALM 0 0 0 0 1014.4 1013.6 0.0
29/05:00pm 23.4 22.5 9.4 41 7.7 N 4 7 2 4 1014.1 1013.3 0.0
29/04:30pm 23.8 22.9 9.4 40 7.9 N 4 11 2 6 1014.2 1013.4 0.0
29/04:00pm 23.9 19.9 9.1 39 8.1 W 20 28 11 15 1014.7 1013.9 0.0
29/03:30pm 24.2 20.1 8.6 37 8.5 WSW 20 28 11 15 1014.6 1013.8 0.0
29/03:00pm 24.7 20.6 8.6 36 8.7 W 20 28 11 15 1014.4 1013.6 0.0
29/02:30pm 24.9 21.4 8.8 36 8.8 W 17 24 9 13 1014.2 1013.4 0.0
29/02:00pm 25.6 21.7 8.6 34 9.3 W 19 26 10 14 1014.1 1013.3 0.0
29/01:30pm 25.2 21.6 8.2 34 9.2 W 17 26 9 14 1014.1 1013.3 0.0
29/01:00pm 24.8 23.0 9.5 38 8.5 NNW 9 13 5 7 1014.2 1013.4 0.0
29/12:30pm 24.4 23.1 9.9 40 8.0 NNE 7 13 4 7 1014.4 1013.6 0.0
29/12:00pm 24.1 23.0 10.7 43 7.5 NE 7 13 4 7 1014.7 1013.9 0.0
29/11:30am 23.0 22.2 11.1 47 6.7 E 6 9 3 5 1015.4 1014.6 0.0
29/11:00am 22.2 20.2 11.6 51 6.0 ESE 13 17 7 9 1015.8 1015.1 0.0
29/10:30am 21.8 20.7 12.1 54 5.5 SSW 9 15 5 8 1015.9 1015.2 0.0
29/10:00am 21.0 20.6 12.4 58 4.9 SSW 6 9 3 5 1016.6 1015.8 0.0
29/09:30am 20.1 18.4 12.3 61 4.4 SSW 13 15 7 8 1016.6 1015.8 0.0
29/09:00am 19.9 18.7 12.9 64 4.0 S 11 22 6 12 1016.7 1015.9 0.4
29/08:30am 20.1 17.4 11.6 58 4.8 SSW 17 20 9 11 1017.0 1016.2 0.4
29/08:00am 20.2 18.0 12.2 60 4.5 WSW 15 20 8 11 1017.0 1016.2 0.4
29/07:30am 19.7 18.9 14.1 70 3.3 W 11 13 6 7 1016.3 1015.6 0.4
29/07:00am 18.9 17.3 15.0 78 2.3 SSW 17 26 9 14 1015.7 1015.0 0.4
29/06:30am 19.2 20.3 14.5 74 2.8 N 2 7 1 4 1015.4 1014.6 0.2
29/06:00am 19.3 20.1 13.7 70 3.2 WSW 2 6 1 3 1014.8 1014.0 0.2
29/05:30am 19.3 18.5 13.9 71 3.1 NNE 11 15 6 8 1015.1 1014.3 0.2
29/05:00am 20.2 18.1 12.4 61 4.4 NNE 15 20 8 11 1014.2 1013.4 0.2
29/04:30am 20.5 18.1 12.5 60 4.6 N 17 22 9 12 1014.2 1013.4 0.2
29/04:00am 20.5 20.0 12.5 60 4.6 NW 7 13 4 7 1014.0 1013.2 0.0
29/03:30am 20.5 18.3 12.0 58 4.8 N 15 20 8 11 1013.7 1012.9 0.0
29/03:00am 21.6 21.8 10.7 50 6.1 CALM 0 7 0 4 1013.6 1012.8 0.0
29/02:30am 22.5 19.6 8.2 40 7.6 N 13 17 7 9 1014.0 1013.2 0.0
29/02:00am 23.3 20.4 8.2 38 8.1 NNW 13 17 7 9 1014.1 1013.3 0.0
29/01:30am 23.5 19.8 9.5 41 7.7 N 19 26 10 14 1014.3 1013.5 0.0
29/01:00am 25.2 20.1 7.8 33 9.4 N 24 44 13 24 1014.3 1013.5 0.0
29/12:30am 24.9 19.2 6.6 31 9.6 N 26 35 14 19 1014.7 1013.9 0.0
29/12:00am 25.8 20.0 6.4 29 10.2 NNE 26 39 14 21 1014.7 1013.9 0.0
 
Date/Time
CST
Temp
°C
App
Temp
°C
Dew
Point
Rel
Hum
%
Delta-T
°C
Wind Press
QNH
hPa
Press
MSL
hPa
Rain
since 9 am
mm
Dir
 
Spd
km/h
Gust
km/h
Spd
kts
Gust
kts
28/11:30pm 25.2 21.2 4.9 27 10.4 N 15 20 8 11 1014.7 1013.9 0.0
28/11:00pm 23.7 20.4 2.5 25 10.3 NE 9 11 5 6 1014.7 1013.9 0.0
28/10:30pm 23.9 22.2 2.1 24 10.5 CALM 0 6 0 3 1014.9 1014.1 0.0
28/10:00pm 23.9 22.1 1.5 23 10.6 CALM 0 0 0 0 1015.2 1014.4 0.0
28/09:30pm 23.8 22.1 2.0 24 10.4 CALM 0 2 0 1 1014.9 1014.1 0.0
28/09:00pm 24.0 22.3 1.6 23 10.7 CALM 0 4 0 2 1015.1 1014.3 0.0
28/08:30pm 25.1 20.9 1.9 22 11.2 ENE 13 17 7 9 1014.7 1013.9 0.0
28/08:00pm 25.7 20.7 1.1 20 11.8 NE 17 19 9 10 1014.7 1013.9 0.0
28/07:30pm 25.3 20.6 0.8 20 11.6 NE 15 17 8 9 1014.8 1014.0 0.0
28/07:00pm 25.3 21.0 0.8 20 11.6 NNE 13 15 7 8 1015.1 1014.3 0.0
28/06:30pm 25.9 21.4 -0.2 18 12.2 NNE 13 15 7 8 1014.7 1013.9 0.0
28/06:00pm 26.9 21.7 -0.2 17 12.8 N 17 20 9 11 1014.4 1013.6 0.0
28/05:30pm 27.4 22.0 1.0 18 12.7 NNE 19 26 10 14 1014.3 1013.5 0.0
28/05:00pm 27.8 22.7 0.5 17 13.1 NNE 17 20 9 11 1014.5 1013.7 0.0
28/04:30pm 28.2 22.4 0.0 16 13.5 N 20 26 11 14 1014.6 1013.8 0.0
28/04:00pm 28.4 22.6 0.2 16 13.5 N 20 28 11 15 1015.1 1014.3 0.0
28/03:30pm 28.6 23.2 1.2 17 13.4 N 19 26 10 14 1015.0 1014.2 0.0
28/03:00pm 28.8 23.1 0.5 16 13.7 N 20 32 11 17 1014.8 1014.0 0.0
28/02:30pm 29.6 24.2 1.1 16 14.0 N 19 33 10 18 1014.8 1014.0 0.0
28/02:00pm 30.0 24.6 1.5 16 14.1 N 19 32 10 17 1014.9 1014.1 0.0
28/01:30pm 28.6 23.7 2.0 18 13.2 N 17 26 9 14 1015.8 1015.1 0.0
28/01:00pm 29.2 23.9 1.7 17 13.6 N 19 30 10 16 1016.2 1015.5 0.0
28/12:30pm 29.1 23.7 2.4 18 13.4 N 20 32 11 17 1016.8 1016.0 0.0
28/12:00pm 29.8 24.5 2.1 17 13.8 NNW 19 28 10 15 1017.2 1016.4 0.0
28/11:30am 28.5 23.1 2.7 19 12.9 N 20 28 11 15 1017.7 1016.9 0.0
28/11:00am 28.5 23.3 3.4 20 12.7 N 20 26 11 14 1018.2 1017.4 0.0
28/10:30am 28.3 22.8 3.9 21 12.5 N 22 32 12 17 1018.5 1017.7 0.0
28/10:00am 26.7 21.6 3.2 22 11.7 N 19 24 10 13 1018.6 1017.8 0.0
28/09:30am 25.1 22.4 3.7 25 10.7 NNE 7 11 4 6 1018.7 1017.9 0.0
28/09:00am 22.9 21.5 3.4 28 9.5 CALM 0 0 0 0 1018.9 1018.1 0.0
28/08:30am 21.2 19.8 3.4 31 8.6 CALM 0 0 0 0 1018.7 1017.9 0.0
28/08:00am 18.8 17.3 3.0 35 7.4 CALM 0 0 0 0 1018.4 1017.6 0.0
28/07:30am 18.1 16.6 2.8 36 7.1 CALM 0 0 0 0 1018.1 1017.3 0.0
28/07:00am 18.0 16.4 2.7 36 7.1 CALM 0 0 0 0 1017.9 1017.1 0.0
28/06:30am 18.4 15.6 2.3 34 7.4 NNE 6 9 3 5 1017.4 1016.6 0.0
28/06:00am 17.8 16.2 2.2 35 7.2 CALM 0 4 0 2 1017.4 1016.6 0.0
28/05:30am 18.2 16.5 2.1 34 7.4 CALM 0 0 0 0 1017.1 1016.3 0.0
28/05:00am 18.3 15.9 2.2 34 7.4 NNE 4 7 2 4 1017.1 1016.3 0.0
28/04:30am 17.1 14.3 1.9 36 6.9 NNE 6 9 3 5 1017.0 1016.2 0.0
28/04:00am 18.3 16.7 2.2 34 7.4 CALM 0 0 0 0 1017.0 1016.2 0.0
28/03:30am 18.6 15.6 2.0 33 7.6 NNE 7 7 4 4 1017.0 1016.2 0.0
28/03:00am 16.9 13.1 1.8 36 6.8 NNE 11 13 6 7 1017.0 1016.2 0.0
28/02:30am 17.9 15.1 1.8 34 7.3 NNE 6 9 3 5 1016.9 1016.1 0.0
28/02:00am 17.6 15.9 2.0 35 7.1 CALM 0 4 0 2 1016.9 1016.1 0.0
28/01:30am 18.5 16.9 2.4 34 7.5 CALM 0 0 0 0 1016.9 1016.1 0.0
28/01:00am 17.3 15.6 2.1 36 6.9 CALM 0 0 0 0 1017.2 1016.4 0.0
28/12:30am 17.2 15.5 2.0 36 6.9 CALM 0 0 0 0 1017.4 1016.6 0.0
28/12:00am 18.1 16.4 2.0 34 7.4 CALM 0 2 0 1 1017.6 1016.8 0.0
 
Date/Time
CST
Temp
°C
App
Temp
°C
Dew
Point
Rel
Hum
%
Delta-T
°C
Wind Press
QNH
hPa
Press
MSL
hPa
Rain
since 9 am
mm
Dir
 
Spd
km/h
Gust
km/h
Spd
kts
Gust
kts
27/11:30pm 18.3 16.7 2.2 34 7.4 CALM 0 6 0 3 1017.7 1016.9 0.0
27/11:00pm 19.0 17.0 2.4 33 7.7 NNE 2 6 1 3 1017.7 1016.9 0.0
27/10:30pm 18.5 15.7 1.9 33 7.6 NNE 6 7 3 4 1017.9 1017.1 0.0
27/10:00pm 19.0 17.4 2.4 33 7.7 CALM 0 0 0 0 1017.9 1017.1 0.0
27/09:30pm 19.7 18.0 2.1 31 8.2 CALM 0 0 0 0 1017.7 1016.9 0.0
27/09:00pm 21.0 18.2 2.3 29 8.8 NNE 6 7 3 4 1017.7 1016.9 0.0
27/08:30pm 21.9 19.0 2.6 28 9.2 NNE 7 11 4 6 1017.4 1016.6 0.0
27/08:00pm 20.8 17.8 2.1 29 8.8 NNE 7 11 4 6 1017.1 1016.3 0.0
27/07:30pm 21.6 18.6 2.3 28 9.1 NNE 7 9 4 5 1017.0 1016.2 0.0
27/07:00pm 23.2 20.3 2.7 26 9.9 NNE 7 7 4 4 1017.1 1016.3 0.0
27/06:30pm 23.6 22.1 3.0 26 10.0 CALM 0 6 0 3 1016.9 1016.1 0.0
27/06:00pm 24.3 20.2 2.5 24 10.6 NNE 13 15 7 8 1016.8 1016.0 0.0
27/05:30pm 25.3 21.3 2.7 23 11.1 N 13 15 7 8 1016.4 1015.7 0.0
27/05:00pm 26.7 22.3 2.6 21 11.9 N 15 20 8 11 1016.8 1016.0 0.0
27/04:30pm 27.0 21.5 2.1 20 12.2 N 20 28 11 15 1016.7 1015.9 0.0
27/04:00pm 27.2 22.0 2.3 20 12.3 N 19 24 10 13 1016.6 1015.8 0.0
27/03:30pm 27.6 22.2 2.6 20 12.4 NNW 20 28 11 15 1016.7 1015.9 0.0
27/03:00pm 27.1 21.3 2.2 20 12.2 N 22 30 12 16 1016.4 1015.7 0.0

Other Formats:

Comma delimited format used in spreadsheet applications
http://www.bom.gov.au/fwo/IDS60801/IDS60801.94674.axf

JavaScript Object Notation format (JSON) in row-major order
http://www.bom.gov.au/fwo/IDS60801/IDS60801.94674.json